Terminal Aerodrome Forecast
Issued by NWS Albany, NY

Home | Current Version | Previous Version | Text Only | Print | Product List | Glossary On
Versions: 1 2 3 4 5 6 7 8 9 10 11 12 13 14 15 16 17 18 19 20
000
FTUS41 KALY 061722
TAFALB
TAF
KALB 061722Z 0618/0718 17007KT P6SM SCT040 SCT100 BKN200
     FM070000 17005KT P6SM SCT035 BKN050
     FM070800 VRB03KT 5SM BR VCSH SCT008 OVC015
     FM071200 17006KT P6SM VCSH OVC040=

USA.gov is the U.S. government's official web portal to all federal, state and local government web resources and services.